sensor_id;sensor_type;location;lat;lon;timestamp;pressure;altitude;pressure_sealevel;temperature;humidity
32330;BME280;18807;52.434;13.238;2022-12-18T00:05:59;102898.44;;;-5.22;100.00
32330;BME280;18807;52.434;13.238;2022-12-18T00:13:35;102909.97;;;-5.20;100.00
32330;BME280;18807;52.434;13.238;2022-12-18T00:21:11;102906.19;;;-5.15;100.00
32330;BME280;18807;52.434;13.238;2022-12-18T00:28:46;102899.38;;;-5.21;100.00
32330;BME280;18807;52.434;13.238;2022-12-18T00:36:22;102899.41;;;-5.44;100.00
32330;BME280;18807;52.434;13.238;2022-12-18T00:43:58;102896.72;;;-5.52;100.00
32330;BME280;18807;52.434;13.238;2022-12-18T00:51:32;102901.34;;;-5.50;100.00
32330;BME280;18807;52.434;13.238;2022-12-18T00:59:07;102894.41;;;-5.65;100.00
32330;BME280;18807;52.434;13.238;2022-12-18T01:06:41;102900.63;;;-5.56;100.00
32330;BME280;18807;52.434;13.238;2022-12-18T01:14:17;102918.16;;;-5.62;100.00
32330;BME280;18807;52.434;13.238;2022-12-18T01:21:51;102910.78;;;-5.66;100.00
32330;BME280;18807;52.434;13.238;2022-12-18T01:29:27;102923.38;;;-5.62;100.00
32330;BME280;18807;52.434;13.238;2022-12-18T01:37:02;102932.47;;;-5.58;100.00
32330;BME280;18807;52.434;13.238;2022-12-18T01:45:08;102933.50;;;-5.49;100.00
32330;BME280;18807;52.434;13.238;2022-12-18T01:52:59;102943.41;;;-5.38;100.00
32330;BME280;18807;52.434;13.238;2022-12-18T02:00:35;102938.28;;;-5.68;100.00
32330;BME280;18807;52.434;13.238;2022-12-18T02:08:11;102944.56;;;-5.81;100.00
32330;BME280;18807;52.434;13.238;2022-12-18T02:15:57;102952.41;;;-5.66;100.00
32330;BME280;18807;52.434;13.238;2022-12-18T02:23:44;102954.41;;;-5.63;100.00
32330;BME280;18807;52.434;13.238;2022-12-18T02:31:24;102951.78;;;-5.79;100.00
32330;BME280;18807;52.434;13.238;2022-12-18T02:39:00;102958.44;;;-5.96;100.00
32330;BME280;18807;52.434;13.238;2022-12-18T02:46:39;102960.66;;;-5.77;100.00
32330;BME280;18807;52.434;13.238;2022-12-18T02:54:34;102954.97;;;-5.81;100.00
32330;BME280;18807;52.434;13.238;2022-12-18T03:02:19;102960.81;;;-5.68;100.00
32330;BME280;18807;52.434;13.238;2022-12-18T03:09:55;102969.22;;;-5.78;100.00
32330;BME280;18807;52.434;13.238;2022-12-18T03:17:33;102964.56;;;-5.73;100.00
32330;BME280;18807;52.434;13.238;2022-12-18T03:25:09;102968.97;;;-5.65;100.00
32330;BME280;18807;52.434;13.238;2022-12-18T03:32:47;102970.34;;;-5.53;100.00
32330;BME280;18807;52.434;13.238;2022-12-18T03:40:27;102964.56;;;-5.51;100.00
32330;BME280;18807;52.434;13.238;2022-12-18T03:48:07;102960.91;;;-5.60;100.00
32330;BME280;18807;52.434;13.238;2022-12-18T03:55:43;102960.63;;;-5.70;100.00
32330;BME280;18807;52.434;13.238;2022-12-18T04:03:19;102968.47;;;-5.77;100.00
32330;BME280;18807;52.434;13.238;2022-12-18T04:10:58;102974.00;;;-5.67;100.00
32330;BME280;18807;52.434;13.238;2022-12-18T04:18:35;102984.75;;;-5.64;100.00
32330;BME280;18807;52.434;13.238;2022-12-18T04:26:09;102992.03;;;-5.68;100.00
32330;BME280;18807;52.434;13.238;2022-12-18T04:33:44;103003.13;;;-5.62;100.00
32330;BME280;18807;52.434;13.238;2022-12-18T04:41:18;102987.72;;;-5.83;100.00
32330;BME280;18807;52.434;13.238;2022-12-18T04:48:53;103000.94;;;-5.89;100.00
32330;BME280;18807;52.434;13.238;2022-12-18T04:56:27;102988.84;;;-5.88;100.00
32330;BME280;18807;52.434;13.238;2022-12-18T05:04:03;103001.44;;;-5.84;100.00
32330;BME280;18807;52.434;13.238;2022-12-18T05:11:37;103013.22;;;-5.72;100.00
32330;BME280;18807;52.434;13.238;2022-12-18T05:19:12;103013.81;;;-5.75;100.00
32330;BME280;18807;52.434;13.238;2022-12-18T05:26:46;103020.00;;;-5.81;100.00
32330;BME280;18807;52.434;13.238;2022-12-18T05:34:21;103034.63;;;-5.75;100.00
32330;BME280;18807;52.434;13.238;2022-12-18T05:41:55;103035.91;;;-5.94;100.00
32330;BME280;18807;52.434;13.238;2022-12-18T05:49:30;103047.69;;;-6.11;100.00
32330;BME280;18807;52.434;13.238;2022-12-18T05:57:06;103051.72;;;-6.06;100.00
32330;BME280;18807;52.434;13.238;2022-12-18T06:04:41;103057.63;;;-5.93;100.00
32330;BME280;18807;52.434;13.238;2022-12-18T06:12:15;103067.88;;;-6.02;100.00
32330;BME280;18807;52.434;13.238;2022-12-18T06:19:50;103070.66;;;-6.00;100.00
32330;BME280;18807;52.434;13.238;2022-12-18T06:27:24;103068.09;;;-6.07;100.00
32330;BME280;18807;52.434;13.238;2022-12-18T06:35:00;103076.63;;;-6.01;100.00
32330;BME280;18807;52.434;13.238;2022-12-18T06:42:33;103092.09;;;-6.24;100.00
32330;BME280;18807;52.434;13.238;2022-12-18T06:50:09;103113.59;;;-6.11;100.00
32330;BME280;18807;52.434;13.238;2022-12-18T06:57:43;103119.16;;;-6.08;100.00
32330;BME280;18807;52.434;13.238;2022-12-18T07:05:19;103121.19;;;-5.98;100.00
32330;BME280;18807;52.434;13.238;2022-12-18T07:12:53;103115.59;;;-5.94;100.00
32330;BME280;18807;52.434;13.238;2022-12-18T07:20:28;103108.09;;;-5.84;100.00
32330;BME280;18807;52.434;13.238;2022-12-18T07:28:02;103098.50;;;-5.92;100.00
32330;BME280;18807;52.434;13.238;2022-12-18T07:35:37;103115.84;;;-5.77;100.00
32330;BME280;18807;52.434;13.238;2022-12-18T07:43:11;103108.59;;;-5.80;100.00
32330;BME280;18807;52.434;13.238;2022-12-18T07:50:47;103104.88;;;-5.75;100.00
32330;BME280;18807;52.434;13.238;2022-12-18T07:58:21;103110.84;;;-5.76;100.00
32330;BME280;18807;52.434;13.238;2022-12-18T08:06:00;103117.88;;;-5.75;100.00
32330;BME280;18807;52.434;13.238;2022-12-18T08:13:33;103120.44;;;-5.68;100.00
32330;BME280;18807;52.434;13.238;2022-12-18T08:21:10;103136.22;;;-5.66;100.00
32330;BME280;18807;52.434;13.238;2022-12-18T08:28:44;103134.59;;;-5.73;100.00
32330;BME280;18807;52.434;13.238;2022-12-18T08:36:20;103140.88;;;-5.64;100.00
32330;BME280;18807;52.434;13.238;2022-12-18T08:43:54;103154.44;;;-5.59;100.00
32330;BME280;18807;52.434;13.238;2022-12-18T08:51:47;103159.78;;;-5.51;100.00
32330;BME280;18807;52.434;13.238;2022-12-18T08:59:21;103175.34;;;-5.44;100.00
32330;BME280;18807;52.434;13.238;2022-12-18T09:06:57;103174.22;;;-5.46;100.00
32330;BME280;18807;52.434;13.238;2022-12-18T09:14:31;103178.66;;;-5.38;100.00
32330;BME280;18807;52.434;13.238;2022-12-18T09:22:06;103172.38;;;-5.47;100.00
32330;BME280;18807;52.434;13.238;2022-12-18T09:29:40;103190.38;;;-5.34;100.00
32330;BME280;18807;52.434;13.238;2022-12-18T09:37:15;103172.13;;;-5.34;100.00
32330;BME280;18807;52.434;13.238;2022-12-18T09:44:51;103154.09;;;-5.33;100.00
32330;BME280;18807;52.434;13.238;2022-12-18T09:52:30;103143.84;;;-5.31;100.00
32330;BME280;18807;52.434;13.238;2022-12-18T10:00:15;103134.94;;;-5.33;100.00
32330;BME280;18807;52.434;13.238;2022-12-18T10:07:59;103118.16;;;-5.28;100.00
32330;BME280;18807;52.434;13.238;2022-12-18T10:15:40;103111.19;;;-5.14;100.00
32330;BME280;18807;52.434;13.238;2022-12-18T10:23:25;103121.88;;;-5.04;100.00
32330;BME280;18807;52.434;13.238;2022-12-18T10:31:01;103103.72;;;-5.11;100.00
32330;BME280;18807;52.434;13.238;2022-12-18T10:38:38;103111.38;;;-4.97;100.00
32330;BME280;18807;52.434;13.238;2022-12-18T10:46:16;103093.47;;;-4.87;100.00
32330;BME280;18807;52.434;13.238;2022-12-18T10:54:00;103084.97;;;-4.77;100.00
32330;BME280;18807;52.434;13.238;2022-12-18T11:01:47;103066.50;;;-4.72;100.00
32330;BME280;18807;52.434;13.238;2022-12-18T11:09:24;103071.47;;;-4.66;100.00
32330;BME280;18807;52.434;13.238;2022-12-18T11:17:00;103073.38;;;-4.50;100.00
32330;BME280;18807;52.434;13.238;2022-12-18T11:24:57;103074.50;;;-4.39;100.00
32330;BME280;18807;52.434;13.238;2022-12-18T11:32:55;103059.88;;;-4.30;100.00
32330;BME280;18807;52.434;13.238;2022-12-18T11:40:34;103051.91;;;-4.16;100.00
32330;BME280;18807;52.434;13.238;2022-12-18T11:48:17;103080.84;;;-4.06;100.00
32330;BME280;18807;52.434;13.238;2022-12-18T11:56:19;103092.38;;;-4.04;100.00
32330;BME280;18807;52.434;13.238;2022-12-18T12:04:17;103089.78;;;-4.04;100.00
32330;BME280;18807;52.434;13.238;2022-12-18T12:12:07;103088.00;;;-3.96;100.00
32330;BME280;18807;52.434;13.238;2022-12-18T12:19:51;103092.63;;;-3.94;100.00
32330;BME280;18807;52.434;13.238;2022-12-18T12:27:36;103113.34;;;-3.80;100.00
32330;BME280;18807;52.434;13.238;2022-12-18T12:35:24;103104.72;;;-3.79;100.00
32330;BME280;18807;52.434;13.238;2022-12-18T12:43:03;103096.06;;;-3.71;100.00
32330;BME280;18807;52.434;13.238;2022-12-18T12:50:47;103077.00;;;-3.70;100.00
32330;BME280;18807;52.434;13.238;2022-12-18T12:58:29;103046.91;;;-3.66;100.00
32330;BME280;18807;52.434;13.238;2022-12-18T13:06:11;103060.13;;;-3.65;100.00
32330;BME280;18807;52.434;13.238;2022-12-18T13:13:50;103054.47;;;-3.69;100.00
32330;BME280;18807;52.434;13.238;2022-12-18T13:21:28;103052.31;;;-3.65;100.00
32330;BME280;18807;52.434;13.238;2022-12-18T13:29:05;103040.34;;;-3.63;100.00
32330;BME280;18807;52.434;13.238;2022-12-18T13:36:38;103044.06;;;-3.61;100.00
32330;BME280;18807;52.434;13.238;2022-12-18T13:44:24;103049.63;;;-3.58;100.00
32330;BME280;18807;52.434;13.238;2022-12-18T13:51:59;103039.00;;;-3.59;100.00
32330;BME280;18807;52.434;13.238;2022-12-18T13:59:37;103032.03;;;-3.67;100.00
32330;BME280;18807;52.434;13.238;2022-12-18T14:07:13;103020.38;;;-3.86;100.00
32330;BME280;18807;52.434;13.238;2022-12-18T14:14:51;103014.72;;;-3.82;100.00
32330;BME280;18807;52.434;13.238;2022-12-18T14:22:27;103001.84;;;-3.81;100.00
32330;BME280;18807;52.434;13.238;2022-12-18T14:30:23;102977.94;;;-3.77;100.00
32330;BME280;18807;52.434;13.238;2022-12-18T14:38:28;102969.28;;;-3.84;100.00
32330;BME280;18807;52.434;13.238;2022-12-18T14:46:03;102977.53;;;-3.88;100.00
32330;BME280;18807;52.434;13.238;2022-12-18T14:53:40;102986.13;;;-3.89;100.00
32330;BME280;18807;52.434;13.238;2022-12-18T15:01:28;102997.34;;;-3.90;100.00
32330;BME280;18807;52.434;13.238;2022-12-18T15:09:06;102994.22;;;-3.95;100.00
32330;BME280;18807;52.434;13.238;2022-12-18T15:16:56;102977.59;;;-4.04;100.00
32330;BME280;18807;52.434;13.238;2022-12-18T15:24:31;102982.03;;;-4.03;100.00
32330;BME280;18807;52.434;13.238;2022-12-18T15:32:20;102980.19;;;-4.04;100.00
32330;BME280;18807;52.434;13.238;2022-12-18T15:39:54;103007.22;;;-4.03;100.00
32330;BME280;18807;52.434;13.238;2022-12-18T15:47:30;103003.78;;;-4.11;100.00
32330;BME280;18807;52.434;13.238;2022-12-18T15:55:08;102994.69;;;-4.15;100.00
32330;BME280;18807;52.434;13.238;2022-12-18T16:03:03;102969.09;;;-4.26;100.00
32330;BME280;18807;52.434;13.238;2022-12-18T16:10:37;102983.19;;;-4.32;100.00
32330;BME280;18807;52.434;13.238;2022-12-18T16:18:12;102985.19;;;-4.30;100.00
32330;BME280;18807;52.434;13.238;2022-12-18T16:25:46;102984.91;;;-4.24;100.00
32330;BME280;18807;52.434;13.238;2022-12-18T16:33:21;102971.72;;;-4.26;100.00
32330;BME280;18807;52.434;13.238;2022-12-18T16:40:55;102954.88;;;-4.21;100.00
32330;BME280;18807;52.434;13.238;2022-12-18T16:48:48;102942.63;;;-4.22;100.00
32330;BME280;18807;52.434;13.238;2022-12-18T16:56:22;102957.34;;;-4.22;100.00
32330;BME280;18807;52.434;13.238;2022-12-18T17:04:00;102959.13;;;-4.30;100.00
32330;BME280;18807;52.434;13.238;2022-12-18T17:11:35;102969.38;;;-4.31;100.00
32330;BME280;18807;52.434;13.238;2022-12-18T17:19:10;102973.16;;;-4.36;100.00
32330;BME280;18807;52.434;13.238;2022-12-18T17:26:48;102972.59;;;-4.49;100.00
32330;BME280;18807;52.434;13.238;2022-12-18T17:34:24;102946.44;;;-4.58;100.00
32330;BME280;18807;52.434;13.238;2022-12-18T17:41:58;102945.00;;;-4.63;100.00
32330;BME280;18807;52.434;13.238;2022-12-18T17:49:33;102940.06;;;-4.68;100.00
32330;BME280;18807;52.434;13.238;2022-12-18T17:57:07;102930.97;;;-4.72;100.00
32330;BME280;18807;52.434;13.238;2022-12-18T18:04:43;102917.72;;;-4.66;100.00
32330;BME280;18807;52.434;13.238;2022-12-18T18:12:17;102909.63;;;-4.76;100.00
32330;BME280;18807;52.434;13.238;2022-12-18T18:20:10;102899.13;;;-4.85;100.00
32330;BME280;18807;52.434;13.238;2022-12-18T18:27:54;102884.09;;;-4.87;100.00
32330;BME280;18807;52.434;13.238;2022-12-18T18:35:29;102887.13;;;-4.91;100.00
32330;BME280;18807;52.434;13.238;2022-12-18T18:43:23;102874.84;;;-4.92;100.00
32330;BME280;18807;52.434;13.238;2022-12-18T18:51:00;102852.75;;;-4.96;100.00
32330;BME280;18807;52.434;13.238;2022-12-18T18:58:34;102835.84;;;-4.99;100.00
32330;BME280;18807;52.434;13.238;2022-12-18T19:06:13;102821.31;;;-4.97;100.00
32330;BME280;18807;52.434;13.238;2022-12-18T19:13:48;102806.69;;;-5.04;100.00
32330;BME280;18807;52.434;13.238;2022-12-18T19:21:27;102812.09;;;-5.02;100.00
32330;BME280;18807;52.434;13.238;2022-12-18T19:29:06;102814.09;;;-5.00;100.00
32330;BME280;18807;52.434;13.238;2022-12-18T19:36:42;102795.94;;;-5.07;100.00
32330;BME280;18807;52.434;13.238;2022-12-18T19:44:17;102808.81;;;-5.08;100.00
32330;BME280;18807;52.434;13.238;2022-12-18T19:51:52;102812.50;;;-5.06;100.00
32330;BME280;18807;52.434;13.238;2022-12-18T19:59:26;102808.97;;;-5.07;100.00
32330;BME280;18807;52.434;13.238;2022-12-18T20:07:02;102803.25;;;-5.11;100.00
32330;BME280;18807;52.434;13.238;2022-12-18T20:14:36;102793.19;;;-5.08;100.00
32330;BME280;18807;52.434;13.238;2022-12-18T20:22:12;102795.19;;;-5.06;100.00
32330;BME280;18807;52.434;13.238;2022-12-18T20:29:46;102760.66;;;-5.12;100.00
32330;BME280;18807;52.434;13.238;2022-12-18T20:37:22;102745.31;;;-5.17;100.00
32330;BME280;18807;52.434;13.238;2022-12-18T20:44:57;102752.56;;;-5.15;100.00
32330;BME280;18807;52.434;13.238;2022-12-18T20:52:33;102758.06;;;-5.12;100.00
32330;BME280;18807;52.434;13.238;2022-12-18T21:00:10;102763.75;;;-5.07;100.00
32330;BME280;18807;52.434;13.238;2022-12-18T21:07:51;102731.78;;;-5.06;100.00
32330;BME280;18807;52.434;13.238;2022-12-18T21:15:25;102728.22;;;-5.07;100.00
32330;BME280;18807;52.434;13.238;2022-12-18T21:23:01;102720.41;;;-5.07;100.00
32330;BME280;18807;52.434;13.238;2022-12-18T21:30:48;102740.81;;;-5.03;100.00
32330;BME280;18807;52.434;13.238;2022-12-18T21:38:23;102740.81;;;-5.03;100.00
32330;BME280;18807;52.434;13.238;2022-12-18T21:45:57;102731.78;;;-5.06;100.00
32330;BME280;18807;52.434;13.238;2022-12-18T21:53:33;102744.03;;;-5.05;100.00
32330;BME280;18807;52.434;13.238;2022-12-18T22:01:06;102736.53;;;-5.02;100.00
32330;BME280;18807;52.434;13.238;2022-12-18T22:08:42;102730.56;;;-5.01;100.00
32330;BME280;18807;52.434;13.238;2022-12-18T22:16:16;102717.38;;;-5.03;100.00
32330;BME280;18807;52.434;13.238;2022-12-18T22:23:56;102694.25;;;-5.00;100.00
32330;BME280;18807;52.434;13.238;2022-12-18T22:31:30;102699.63;;;-4.98;100.00
32330;BME280;18807;52.434;13.238;2022-12-18T22:39:10;102675.13;;;-5.00;100.00
32330;BME280;18807;52.434;13.238;2022-12-18T22:46:45;102673.91;;;-4.95;100.00
32330;BME280;18807;52.434;13.238;2022-12-18T22:54:28;102646.81;;;-4.97;100.00
32330;BME280;18807;52.434;13.238;2022-12-18T23:02:02;102630.69;;;-5.02;100.00
32330;BME280;18807;52.434;13.238;2022-12-18T23:09:38;102614.91;;;-5.03;100.00
32330;BME280;18807;52.434;13.238;2022-12-18T23:17:12;102598.66;;;-5.01;100.00
32330;BME280;18807;52.434;13.238;2022-12-18T23:24:47;102591.78;;;-5.00;100.00
32330;BME280;18807;52.434;13.238;2022-12-18T23:32:21;102585.78;;;-4.99;100.00
32330;BME280;18807;52.434;13.238;2022-12-18T23:39:56;102583.03;;;-5.01;100.00
32330;BME280;18807;52.434;13.238;2022-12-18T23:47:30;102560.38;;;-5.02;100.00
32330;BME280;18807;52.434;13.238;2022-12-18T23:55:06;102525.56;;;-5.02;100.00
